Darstellungsparameter: Aktuell verwendete Einstellungen:
Skalierung der Graphiken ... ?
xyx+y,   Skalierungsfaktor:      Skalierung: Modus: x, Faktor: 1
Darstellungszeitraum ... ?
Vom - - bis: - -   Zeitraum: 14.08.2017 - 15.08.2017
Min/Max/Avg-Anzeige ... ?
Zeige MMA aktuell
Zeige MMA Monat
Zeige MMA alles
Zeige --A aktuell
Zeige --A Monat
Zeige --A alles
Keine MMA-Anzeige
MMA:
Minimum Maximum Average (ber die Originaldaten)
MMA-Basis: 14.08.2017 - 15.08.2017
Quicknavigation für Darstellung... ?
Tage:      1T, 2T, 3T, 5T -1T -2T -3T -5T +1T +2T +3T +5T
Wochen: 1W, 2W, 3W -1W -2W -3W +1W +2W +3W
Monate: 1M, 3M, 6M -1M -3M -6M +1M +3M +6M
Jahre:    1J, 3J, 5J, 10J -1J -3J -5J -10J +1J +3J +5J +10J
Nutze für die Darstellung ... ?
Originaldaten oder Mittelwerte auf ...
Stundenbasis Tagesbasis Wochenbasis
Monatsbasis Jahresbasis      Datenbasis: Original-Daten
Darstellen als:
Statistik (Auto) Statistik J:M      Darstellung:
Zur Graphik,    zurück zur Übersicht aller Sensoren.
 
Tabellarische Datenbersicht: ?
 
Sensor: Nr:Datum:Temp:Feuchte:Taupunkt:
Aussen-T/F 1 14-08-2017 00:00:00 14 C 92 % 12.72 C
2 14-08-2017 00:05:00 13.9 C 92 % 12.62 C
3 14-08-2017 00:10:00 13.8 C 93 % 12.69 C
4 14-08-2017 00:15:00 13.8 C 93 % 12.69 C
5 14-08-2017 00:20:00 13.7 C 93 % 12.59 C
6 14-08-2017 00:25:00 13.7 C 93 % 12.59 C
7 14-08-2017 00:30:00 13.6 C 93 % 12.49 C
8 14-08-2017 00:35:00 13.6 C 93 % 12.49 C
9 14-08-2017 00:40:00 13.5 C 93 % 12.39 C
10 14-08-2017 00:45:00 13.4 C 94 % 12.45 C
11 14-08-2017 00:50:00 13.4 C 94 % 12.45 C
12 14-08-2017 00:55:00 13.3 C 94 % 12.36 C
13 14-08-2017 01:00:00 13.3 C 94 % 12.36 C
14 14-08-2017 01:05:00 13.2 C 94 % 12.26 C
15 14-08-2017 01:10:00 13.2 C 94 % 12.26 C
16 14-08-2017 01:15:00 13.2 C 94 % 12.26 C
17 14-08-2017 01:20:00 13.1 C 94 % 12.16 C
18 14-08-2017 01:25:00 13.1 C 94 % 12.16 C
19 14-08-2017 01:30:00 13.1 C 94 % 12.16 C
20 14-08-2017 01:35:00 13 C 94 % 12.06 C
21 14-08-2017 01:40:00 12.9 C 94 % 11.96 C
22 14-08-2017 01:45:00 12.9 C 94 % 11.96 C
23 14-08-2017 01:50:00 12.8 C 94 % 11.86 C
24 14-08-2017 01:55:00 12.8 C 94 % 11.86 C
25 14-08-2017 02:00:00 12.7 C 94 % 11.76 C
Sensor: Nr:Datum:Temp:Feuchte:Taupunkt:
Aussen-T/F 26 14-08-2017 02:05:00 12.7 C 95 % 11.92 C
27 14-08-2017 02:10:00 12.7 C 95 % 11.92 C
28 14-08-2017 02:15:00 12.6 C 95 % 11.82 C
29 14-08-2017 02:20:00 12.6 C 95 % 11.82 C
30 14-08-2017 02:25:00 12.6 C 95 % 11.82 C
31 14-08-2017 02:30:00 12.4 C 95 % 11.62 C
32 14-08-2017 02:35:00 12.4 C 95 % 11.62 C
33 14-08-2017 02:40:00 12.4 C 95 % 11.62 C
34 14-08-2017 02:45:00 12.3 C 95 % 11.52 C
35 14-08-2017 02:50:00 12.3 C 95 % 11.52 C
36 14-08-2017 02:55:00 12.3 C 95 % 11.52 C
37 14-08-2017 03:00:00 12.2 C 95 % 11.42 C
38 14-08-2017 03:05:00 12.2 C 95 % 11.42 C
39 14-08-2017 03:10:00 12.2 C 95 % 11.42 C
40 14-08-2017 03:15:00 12.2 C 95 % 11.42 C
41 14-08-2017 03:20:00 12.2 C 95 % 11.42 C
42 14-08-2017 03:25:00 12.1 C 95 % 11.32 C
43 14-08-2017 03:30:00 12.2 C 95 % 11.42 C
44 14-08-2017 03:35:00 12.2 C 95 % 11.42 C
45 14-08-2017 03:40:00 12.1 C 95 % 11.32 C
46 14-08-2017 03:45:00 12.1 C 95 % 11.32 C
47 14-08-2017 03:50:00 12 C 95 % 11.22 C
48 14-08-2017 03:55:00 11.9 C 95 % 11.13 C
49 14-08-2017 04:00:00 11.9 C 95 % 11.13 C
50 14-08-2017 04:05:00 11.8 C 95 % 11.03 C
Sensor: Nr:Datum:Temp:Feuchte:Taupunkt:
Aussen-T/F 51 14-08-2017 04:10:00 11.8 C 95 % 11.03 C
52 14-08-2017 04:15:00 11.8 C 95 % 11.03 C
53 14-08-2017 04:20:00 11.8 C 95 % 11.03 C
54 14-08-2017 04:25:00 11.8 C 95 % 11.03 C
55 14-08-2017 04:30:00 11.8 C 96 % 11.18 C
56 14-08-2017 04:35:00 11.8 C 95 % 11.03 C
57 14-08-2017 04:40:00 11.7 C 96 % 11.08 C
58 14-08-2017 04:45:00 11.7 C 96 % 11.08 C
59 14-08-2017 04:50:00 11.7 C 96 % 11.08 C
60 14-08-2017 04:55:00 11.6 C 96 % 10.98 C
61 14-08-2017 05:00:00 11.6 C 96 % 10.98 C
62 14-08-2017 05:05:00 11.6 C 96 % 10.98 C
63 14-08-2017 05:10:00 11.6 C 96 % 10.98 C
64 14-08-2017 05:15:00 11.6 C 96 % 10.98 C
65 14-08-2017 05:20:00 11.6 C 96 % 10.98 C
66 14-08-2017 05:25:00 11.7 C 96 % 11.08 C
67 14-08-2017 05:30:00 11.7 C 96 % 11.08 C
68 14-08-2017 05:35:00 11.7 C 96 % 11.08 C
69 14-08-2017 05:40:00 11.8 C 96 % 11.18 C
70 14-08-2017 05:45:00 11.7 C 96 % 11.08 C
71 14-08-2017 05:50:00 11.7 C 96 % 11.08 C
72 14-08-2017 05:55:00 11.8 C 96 % 11.18 C
73 14-08-2017 06:00:00 11.8 C 96 % 11.18 C
74 14-08-2017 06:05:00 11.8 C 96 % 11.18 C
75 14-08-2017 06:10:00 11.9 C 96 % 11.28 C
Sensor: Nr:Datum:Temp:Feuchte:Taupunkt:
Aussen-T/F 76 14-08-2017 06:15:00 11.9 C 96 % 11.28 C
77 14-08-2017 06:20:00 11.9 C 96 % 11.28 C
78 14-08-2017 06:25:00 12 C 96 % 11.38 C
79 14-08-2017 06:30:00 12 C 96 % 11.38 C
80 14-08-2017 06:35:00 12.1 C 96 % 11.48 C
81 14-08-2017 06:40:00 12.1 C 96 % 11.48 C
82 14-08-2017 06:45:00 12.2 C 96 % 11.58 C
83 14-08-2017 06:50:00 12.2 C 96 % 11.58 C
84 14-08-2017 06:55:00 12.3 C 96 % 11.68 C
85 14-08-2017 07:00:00 12.3 C 96 % 11.68 C
86 14-08-2017 07:05:00 12.4 C 97 % 11.94 C
87 14-08-2017 07:10:00 12.4 C 97 % 11.94 C
88 14-08-2017 07:15:00 12.5 C 97 % 12.04 C
89 14-08-2017 07:20:00 12.6 C 97 % 12.14 C
90 14-08-2017 07:25:00 12.6 C 97 % 12.14 C
91 14-08-2017 07:30:00 12.6 C 96 % 11.98 C
92 14-08-2017 07:35:00 12.6 C 96 % 11.98 C
93 14-08-2017 07:40:00 12.7 C 96 % 12.08 C
94 14-08-2017 07:45:00 12.7 C 96 % 12.08 C
95 14-08-2017 07:50:00 12.8 C 97 % 12.34 C
96 14-08-2017 07:55:00 12.8 C 97 % 12.34 C
97 14-08-2017 08:00:00 12.9 C 97 % 12.44 C
98 14-08-2017 08:05:00 12.8 C 97 % 12.34 C
99 14-08-2017 08:10:00 12.9 C 97 % 12.44 C
100 14-08-2017 08:15:00 13.1 C 97 % 12.63 C
Sensor: Nr:Datum:Temp:Feuchte:Taupunkt:
Aussen-T/F 101 14-08-2017 08:20:00 13.2 C 97 % 12.73 C
102 14-08-2017 08:25:00 13.2 C 97 % 12.73 C
103 14-08-2017 08:30:00 13.3 C 97 % 12.83 C
104 14-08-2017 08:35:00 13.3 C 97 % 12.83 C
105 14-08-2017 08:40:00 13.4 C 97 % 12.93 C
106 14-08-2017 08:45:00 13.4 C 97 % 12.93 C
107 14-08-2017 08:50:00 13.5 C 97 % 13.03 C
108 14-08-2017 08:55:00 13.6 C 97 % 13.13 C
109 14-08-2017 09:00:00 13.6 C 97 % 13.13 C
110 14-08-2017 09:05:00 13.7 C 97 % 13.23 C
111 14-08-2017 09:10:00 13.7 C 97 % 13.23 C
112 14-08-2017 09:15:00 13.7 C 97 % 13.23 C
113 14-08-2017 09:20:00 13.7 C 97 % 13.23 C
114 14-08-2017 09:25:00 13.7 C 97 % 13.23 C
115 14-08-2017 09:30:00 13.8 C 97 % 13.33 C
116 14-08-2017 09:35:00 13.8 C 97 % 13.33 C
117 14-08-2017 09:40:00 13.9 C 97 % 13.43 C
118 14-08-2017 09:45:00 14.1 C 97 % 13.63 C
119 14-08-2017 09:50:00 14.2 C 97 % 13.73 C
120 14-08-2017 09:55:00 14.3 C 97 % 13.83 C
121 14-08-2017 10:00:00 14.4 C 97 % 13.93 C
122 14-08-2017 10:05:00 14.6 C 97 % 14.13 C
123 14-08-2017 10:10:00 14.7 C 97 % 14.23 C
124 14-08-2017 10:15:00 14.8 C 97 % 14.33 C
125 14-08-2017 10:20:00 15 C 97 % 14.53 C
Sensor: Nr:Datum:Temp:Feuchte:Taupunkt:
Aussen-T/F 126 14-08-2017 10:25:00 15.2 C 97 % 14.73 C
127 14-08-2017 10:30:00 15.3 C 97 % 14.83 C
128 14-08-2017 10:35:00 15.5 C 97 % 15.03 C
129 14-08-2017 10:40:00 15.7 C 97 % 15.23 C
130 14-08-2017 10:45:00 15.9 C 97 % 15.42 C
131 14-08-2017 10:50:00 16.1 C 97 % 15.62 C
132 14-08-2017 10:55:00 16.2 C 97 % 15.72 C
133 14-08-2017 11:00:00 16.3 C 97 % 15.82 C
134 14-08-2017 11:05:00 16.5 C 97 % 16.02 C
135 14-08-2017 11:10:00 16.7 C 97 % 16.22 C
136 14-08-2017 11:15:00 16.8 C 97 % 16.32 C
137 14-08-2017 11:20:00 17 C 97 % 16.52 C
138 14-08-2017 11:25:00 17.2 C 97 % 16.72 C
139 14-08-2017 11:30:00 17.3 C 97 % 16.82 C
140 14-08-2017 11:35:00 17.4 C 96 % 16.76 C
141 14-08-2017 11:40:00 17.7 C 96 % 17.05 C
142 14-08-2017 11:45:00 18.1 C 94 % 17.12 C
143 14-08-2017 11:50:00 18.4 C 93 % 17.25 C
144 14-08-2017 11:55:00 18.9 C 91 % 17.4 C
145 14-08-2017 12:00:00 19.4 C 90 % 17.72 C
146 14-08-2017 12:05:00 19.7 C 89 % 17.84 C
147 14-08-2017 12:10:00 19.8 C 88 % 17.75 C
148 14-08-2017 12:15:00 20.1 C 86 % 17.68 C
149 14-08-2017 12:20:00 20.3 C 85 % 17.7 C
150 14-08-2017 12:25:00 20.6 C 84 % 17.8 C
Sensor: Nr:Datum:Temp:Feuchte:Taupunkt:
Aussen-T/F 151 14-08-2017 12:30:00 20.8 C 83 % 17.81 C
152 14-08-2017 12:35:00 21.1 C 84 % 18.29 C
153 14-08-2017 12:40:00 21.3 C 83 % 18.29 C
154 14-08-2017 12:45:00 21.7 C 82 % 18.49 C
155 14-08-2017 12:50:00 22 C 80 % 18.39 C
156 14-08-2017 12:55:00 22.4 C 78 % 18.37 C
157 14-08-2017 13:00:00 22.8 C 79 % 18.97 C
158 14-08-2017 13:05:00 22.8 C 82 % 19.56 C
159 14-08-2017 13:10:00 22.7 C 83 % 19.66 C
160 14-08-2017 13:15:00 22.4 C 78 % 18.37 C
161 14-08-2017 13:20:00 22.4 C 77 % 18.17 C
162 14-08-2017 13:25:00 22.5 C 78 % 18.47 C
163 14-08-2017 13:30:00 22.5 C 79 % 18.67 C
164 14-08-2017 13:35:00 22.6 C 79 % 18.77 C
165 14-08-2017 13:40:00 22.6 C 78 % 18.57 C
166 14-08-2017 13:45:00 22.7 C 75 % 18.04 C
167 14-08-2017 13:50:00 23 C 74 % 18.12 C
168 14-08-2017 13:55:00 23.1 C 77 % 18.85 C
169 14-08-2017 14:00:00 23.1 C 74 % 18.21 C
170 14-08-2017 14:05:00 23.2 C 73 % 18.09 C
171 14-08-2017 14:10:00 23.3 C 75 % 18.62 C
172 14-08-2017 14:15:00 23.4 C 73 % 18.28 C
173 14-08-2017 14:20:00 23.7 C 71 % 18.13 C
174 14-08-2017 14:25:00 23.9 C 72 % 18.54 C
175 14-08-2017 14:30:00 24 C 71 % 18.42 C
Sensor: Nr:Datum:Temp:Feuchte:Taupunkt:
Aussen-T/F 176 14-08-2017 14:35:00 24.2 C 72 % 18.83 C
177 14-08-2017 14:40:00 24.2 C 68 % 17.92 C
178 14-08-2017 14:45:00 24.3 C 73 % 19.15 C
179 14-08-2017 14:50:00 24.3 C 70 % 18.48 C
180 14-08-2017 14:55:00 24.4 C 68 % 18.11 C
181 14-08-2017 15:00:00 24.6 C 69 % 18.53 C
182 14-08-2017 15:05:00 24.6 C 68 % 18.3 C
183 14-08-2017 15:10:00 24.7 C 66 % 17.92 C
184 14-08-2017 15:15:00 24.8 C 69 % 18.72 C
185 14-08-2017 15:20:00 24.9 C 67 % 18.35 C
186 14-08-2017 15:25:00 25 C 67 % 18.44 C
187 14-08-2017 15:30:00 25.1 C 70 % 19.24 C
188 14-08-2017 15:35:00 25.2 C 66 % 18.39 C
189 14-08-2017 15:40:00 25.3 C 69 % 19.2 C
190 14-08-2017 15:45:00 25.4 C 66 % 18.58 C
191 14-08-2017 15:50:00 25.6 C 69 % 19.49 C
192 14-08-2017 15:55:00 25.8 C 65 % 18.72 C
193 14-08-2017 16:00:00 26.1 C 66 % 19.25 C
194 14-08-2017 16:05:00 25.9 C 67 % 19.3 C
195 14-08-2017 16:10:00 26 C 67 % 19.4 C
196 14-08-2017 16:15:00 26 C 65 % 18.91 C
197 14-08-2017 16:20:00 26.1 C 71 % 20.43 C
198 14-08-2017 16:25:00 26 C 67 % 19.4 C
199 14-08-2017 16:30:00 26.1 C 71 % 20.43 C
200 14-08-2017 16:35:00 26.1 C 72 % 20.65 C
Sensor: Nr:Datum:Temp:Feuchte:Taupunkt:
Aussen-T/F 201 14-08-2017 16:40:00 25.9 C 67 % 19.3 C
202 14-08-2017 16:45:00 26.1 C 69 % 19.96 C
203 14-08-2017 16:50:00 26.3 C 70 % 20.39 C
204 14-08-2017 16:55:00 26.5 C 72 % 21.04 C
205 14-08-2017 17:00:00 26.4 C 71 % 20.71 C
206 14-08-2017 17:05:00 26.1 C 71 % 20.43 C
207 14-08-2017 17:10:00 25.8 C 73 % 20.59 C
208 14-08-2017 17:15:00 25.4 C 75 % 20.64 C
209 14-08-2017 17:20:00 25.2 C 77 % 20.88 C
210 14-08-2017 17:25:00 25.1 C 77 % 20.78 C
211 14-08-2017 17:30:00 24.8 C 78 % 20.7 C
212 14-08-2017 17:35:00 25.1 C 81 % 21.61 C
213 14-08-2017 17:40:00 25.5 C 78 % 21.38 C
214 14-08-2017 17:45:00 25.6 C 75 % 20.84 C
215 14-08-2017 17:50:00 25.4 C 76 % 20.86 C
216 14-08-2017 17:55:00 25.7 C 75 % 20.93 C
217 14-08-2017 18:00:00 26.2 C 75 % 21.41 C
218 14-08-2017 18:05:00 26.4 C 75 % 21.61 C
219 14-08-2017 18:10:00 26.4 C 65 % 19.29 C
220 14-08-2017 18:15:00 26.6 C 72 % 21.13 C
221 14-08-2017 18:20:00 26.9 C 73 % 21.65 C
222 14-08-2017 18:25:00 27 C 73 % 21.74 C
223 14-08-2017 18:30:00 27.1 C 68 % 20.68 C
224 14-08-2017 18:35:00 27.2 C 71 % 21.48 C
225 14-08-2017 18:40:00 27.2 C 70 % 21.25 C
Sensor: Nr:Datum:Temp:Feuchte:Taupunkt:
Aussen-T/F 226 14-08-2017 18:45:00 27 C 70 % 21.06 C
227 14-08-2017 18:50:00 26.6 C 70 % 20.67 C
228 14-08-2017 18:55:00 26.1 C 72 % 20.65 C
229 14-08-2017 19:00:00 25.4 C 73 % 20.21 C
230 14-08-2017 19:05:00 25 C 75 % 20.26 C
231 14-08-2017 19:10:00 24.7 C 77 % 20.39 C
232 14-08-2017 19:15:00 24.4 C 77 % 20.1 C
233 14-08-2017 19:20:00 24.3 C 77 % 20.01 C
234 14-08-2017 19:25:00 24.2 C 78 % 20.12 C
235 14-08-2017 19:30:00 24.1 C 78 % 20.02 C
236 14-08-2017 19:35:00 24 C 79 % 20.13 C
237 14-08-2017 19:40:00 23.9 C 79 % 20.03 C
238 14-08-2017 19:45:00 23.7 C 79 % 19.84 C
239 14-08-2017 19:50:00 23.5 C 79 % 19.65 C
240 14-08-2017 19:55:00 23.3 C 80 % 19.65 C
241 14-08-2017 20:00:00 23.1 C 80 % 19.46 C
242 14-08-2017 20:05:00 22.7 C 80 % 19.07 C
243 14-08-2017 20:10:00 22.4 C 81 % 18.98 C
244 14-08-2017 20:15:00 22.1 C 82 % 18.88 C
245 14-08-2017 20:20:00 21.8 C 83 % 18.78 C
246 14-08-2017 20:25:00 21.6 C 84 % 18.78 C
247 14-08-2017 20:30:00 21.3 C 84 % 18.49 C
248 14-08-2017 20:35:00 21.2 C 85 % 18.58 C
249 14-08-2017 20:40:00 21 C 85 % 18.38 C
250 14-08-2017 20:45:00 20.9 C 86 % 18.47 C
Sensor: Nr:Datum:Temp:Feuchte:Taupunkt:
Aussen-T/F 251 14-08-2017 20:50:00 20.8 C 86 % 18.37 C
252 14-08-2017 20:55:00 20.7 C 86 % 18.27 C
253 14-08-2017 21:00:00 20.7 C 87 % 18.46 C
254 14-08-2017 21:05:00 20.7 C 87 % 18.46 C
255 14-08-2017 21:10:00 20.6 C 87 % 18.36 C
256 14-08-2017 21:15:00 20.5 C 88 % 18.44 C
257 14-08-2017 21:20:00 20.4 C 88 % 18.34 C
258 14-08-2017 21:25:00 20.3 C 88 % 18.25 C
259 14-08-2017 21:30:00 20.3 C 88 % 18.25 C
260 14-08-2017 21:35:00 20.2 C 88 % 18.15 C
261 14-08-2017 21:40:00 20.1 C 88 % 18.05 C
262 14-08-2017 21:45:00 20 C 88 % 17.95 C
263 14-08-2017 21:50:00 19.9 C 88 % 17.85 C
264 14-08-2017 21:55:00 19.9 C 88 % 17.85 C
265 14-08-2017 22:00:00 19.8 C 88 % 17.75 C
266 14-08-2017 22:05:00 19.8 C 89 % 17.93 C
267 14-08-2017 22:10:00 19.7 C 89 % 17.84 C
268 14-08-2017 22:15:00 19.6 C 89 % 17.74 C
269 14-08-2017 22:20:00 19.6 C 89 % 17.74 C
270 14-08-2017 22:25:00 19.4 C 89 % 17.54 C
271 14-08-2017 22:30:00 19.4 C 89 % 17.54 C
272 14-08-2017 22:35:00 19.4 C 89 % 17.54 C
273 14-08-2017 22:40:00 19.3 C 89 % 17.44 C
274 14-08-2017 22:45:00 19.3 C 89 % 17.44 C
275 14-08-2017 22:50:00 19.2 C 90 % 17.52 C
Sensor: Nr:Datum:Temp:Feuchte:Taupunkt:
Aussen-T/F 276 14-08-2017 22:55:00 19.1 C 90 % 17.42 C
277 14-08-2017 23:00:00 18.9 C 90 % 17.22 C
278 14-08-2017 23:05:00 18.8 C 91 % 17.3 C
279 14-08-2017 23:10:00 18.8 C 91 % 17.3 C
280 14-08-2017 23:15:00 18.8 C 91 % 17.3 C
281 14-08-2017 23:20:00 18.7 C 91 % 17.2 C
282 14-08-2017 23:25:00 18.5 C 91 % 17 C
283 14-08-2017 23:30:00 18.4 C 91 % 16.9 C
284 14-08-2017 23:35:00 18.2 C 91 % 16.71 C
285 14-08-2017 23:40:00 18.1 C 91 % 16.61 C
286 14-08-2017 23:45:00 18 C 92 % 16.68 C
287 14-08-2017 23:50:00 17.9 C 92 % 16.58 C
288 14-08-2017 23:55:00 17.8 C 92 % 16.48 C
289 15-08-2017 00:00:00 17.7 C 92 % 16.38 C
290 15-08-2017 00:05:00 17.6 C 92 % 16.28 C
291 15-08-2017 00:10:00 17.4 C 92 % 16.09 C
292 15-08-2017 00:15:00 17.4 C 93 % 16.26 C
293 15-08-2017 00:20:00 17.4 C 93 % 16.26 C
294 15-08-2017 00:25:00 17.3 C 93 % 16.16 C
295 15-08-2017 00:30:00 17.2 C 93 % 16.06 C
296 15-08-2017 00:35:00 17.2 C 93 % 16.06 C
297 15-08-2017 00:40:00 17.2 C 93 % 16.06 C
298 15-08-2017 00:45:00 17.1 C 93 % 15.96 C
299 15-08-2017 00:50:00 17 C 94 % 16.03 C
300 15-08-2017 00:55:00 16.9 C 93 % 15.76 C
Sensor: Nr:Datum:Temp:Feuchte:Taupunkt:
Aussen-T/F 301 15-08-2017 01:00:00 16.9 C 94 % 15.93 C
302 15-08-2017 01:05:00 16.8 C 94 % 15.83 C
303 15-08-2017 01:10:00 16.8 C 94 % 15.83 C
304 15-08-2017 01:15:00 16.7 C 94 % 15.73 C
305 15-08-2017 01:20:00 16.7 C 94 % 15.73 C
306 15-08-2017 01:25:00 16.5 C 94 % 15.53 C
307 15-08-2017 01:30:00 16.4 C 94 % 15.43 C
308 15-08-2017 01:35:00 16.4 C 94 % 15.43 C
309 15-08-2017 01:40:00 16.4 C 94 % 15.43 C
310 15-08-2017 01:45:00 16.3 C 94 % 15.33 C
311 15-08-2017 01:50:00 16.3 C 94 % 15.33 C
312 15-08-2017 01:55:00 16.3 C 94 % 15.33 C
313 15-08-2017 02:00:00 16.2 C 94 % 15.23 C
314 15-08-2017 02:05:00 16.2 C 94 % 15.23 C
315 15-08-2017 02:10:00 16.1 C 95 % 15.3 C
316 15-08-2017 02:15:00 16.1 C 95 % 15.3 C
317 15-08-2017 02:20:00 16 C 95 % 15.2 C
318 15-08-2017 02:25:00 15.9 C 95 % 15.1 C
319 15-08-2017 02:30:00 15.9 C 95 % 15.1 C
320 15-08-2017 02:35:00 16 C 95 % 15.2 C
321 15-08-2017 02:40:00 15.9 C 95 % 15.1 C
322 15-08-2017 02:45:00 15.9 C 95 % 15.1 C
323 15-08-2017 02:50:00 15.8 C 95 % 15 C
324 15-08-2017 02:55:00 15.8 C 95 % 15 C
325 15-08-2017 03:00:00 15.8 C 95 % 15 C
Sensor: Nr:Datum:Temp:Feuchte:Taupunkt:
Aussen-T/F 326 15-08-2017 03:05:00 15.7 C 95 % 14.9 C
327 15-08-2017 03:10:00 15.7 C 95 % 14.9 C
328 15-08-2017 03:15:00 15.7 C 95 % 14.9 C
329 15-08-2017 03:20:00 15.8 C 95 % 15 C
330 15-08-2017 03:25:00 15.7 C 95 % 14.9 C
331 15-08-2017 03:30:00 15.8 C 96 % 15.16 C
332 15-08-2017 03:35:00 15.8 C 96 % 15.16 C
333 15-08-2017 03:40:00 15.7 C 95 % 14.9 C
334 15-08-2017 03:45:00 15.7 C 96 % 15.06 C
335 15-08-2017 03:50:00 15.7 C 96 % 15.06 C
336 15-08-2017 03:55:00 15.8 C 96 % 15.16 C
337 15-08-2017 04:00:00 15.8 C 96 % 15.16 C
338 15-08-2017 04:05:00 15.7 C 96 % 15.06 C
339 15-08-2017 04:10:00 15.6 C 95 % 14.8 C
340 15-08-2017 04:15:00 15.6 C 96 % 14.96 C
341 15-08-2017 04:20:00 15.5 C 96 % 14.86 C
342 15-08-2017 04:25:00 15.4 C 96 % 14.77 C
343 15-08-2017 04:30:00 15.4 C 96 % 14.77 C
344 15-08-2017 04:35:00 15.4 C 96 % 14.77 C
345 15-08-2017 04:40:00 15.4 C 96 % 14.77 C
346 15-08-2017 04:45:00 15.4 C 96 % 14.77 C
347 15-08-2017 04:50:00 15.4 C 96 % 14.77 C
348 15-08-2017 04:55:00 15.3 C 96 % 14.67 C
349 15-08-2017 05:00:00 15.4 C 96 % 14.77 C
350 15-08-2017 05:05:00 15.3 C 96 % 14.67 C
Sensor: Nr:Datum:Temp:Feuchte:Taupunkt:
Aussen-T/F 351 15-08-2017 05:10:00 15.3 C 96 % 14.67 C
352 15-08-2017 05:15:00 15.3 C 96 % 14.67 C
353 15-08-2017 05:20:00 15.3 C 96 % 14.67 C
354 15-08-2017 05:25:00 15.4 C 96 % 14.77 C
355 15-08-2017 05:30:00 15.3 C 96 % 14.67 C
356 15-08-2017 05:35:00 15.4 C 96 % 14.77 C
357 15-08-2017 05:40:00 15.4 C 96 % 14.77 C
358 15-08-2017 05:45:00 15.4 C 96 % 14.77 C
359 15-08-2017 05:50:00 15.3 C 96 % 14.67 C
360 15-08-2017 05:55:00 15.4 C 96 % 14.77 C
361 15-08-2017 06:00:00 15.4 C 96 % 14.77 C
362 15-08-2017 06:05:00 15.4 C 96 % 14.77 C
363 15-08-2017 06:10:00 15.4 C 96 % 14.77 C
364 15-08-2017 06:15:00 15.3 C 96 % 14.67 C
365 15-08-2017 06:20:00 15.3 C 96 % 14.67 C
366 15-08-2017 06:25:00 15.3 C 96 % 14.67 C
367 15-08-2017 06:30:00 15.2 C 96 % 14.57 C
368 15-08-2017 06:35:00 15.2 C 96 % 14.57 C
369 15-08-2017 06:40:00 15.1 C 96 % 14.47 C
370 15-08-2017 06:45:00 14.9 C 96 % 14.27 C
371 15-08-2017 06:50:00 14.9 C 96 % 14.27 C
372 15-08-2017 06:55:00 14.9 C 96 % 14.27 C
373 15-08-2017 07:00:00 14.9 C 96 % 14.27 C
374 15-08-2017 07:05:00 15.1 C 96 % 14.47 C
375 15-08-2017 07:10:00 15.3 C 97 % 14.83 C
Sensor: Nr:Datum:Temp:Feuchte:Taupunkt:
Aussen-T/F 376 15-08-2017 07:15:00 15.4 C 97 % 14.93 C
377 15-08-2017 07:20:00 15.4 C 97 % 14.93 C
378 15-08-2017 07:25:00 15.5 C 97 % 15.03 C
379 15-08-2017 07:30:00 15.6 C 97 % 15.13 C
380 15-08-2017 07:35:00 15.5 C 97 % 15.03 C
381 15-08-2017 07:40:00 15.5 C 96 % 14.86 C
382 15-08-2017 07:45:00 15.5 C 96 % 14.86 C
383 15-08-2017 07:50:00 15.6 C 97 % 15.13 C
384 15-08-2017 07:55:00 15.7 C 97 % 15.23 C
385 15-08-2017 08:00:00 15.7 C 97 % 15.23 C
386 15-08-2017 08:05:00 15.8 C 97 % 15.32 C
387 15-08-2017 08:10:00 15.8 C 97 % 15.32 C
388 15-08-2017 08:15:00 15.8 C 97 % 15.32 C
389 15-08-2017 08:20:00 15.9 C 97 % 15.42 C
390 15-08-2017 08:25:00 16 C 97 % 15.52 C
391 15-08-2017 08:30:00 16.1 C 97 % 15.62 C
392 15-08-2017 08:35:00 16.2 C 97 % 15.72 C
393 15-08-2017 08:40:00 16.4 C 97 % 15.92 C
394 15-08-2017 08:45:00 16.5 C 97 % 16.02 C
395 15-08-2017 08:50:00 16.6 C 97 % 16.12 C
396 15-08-2017 08:55:00 16.7 C 97 % 16.22 C
397 15-08-2017 09:00:00 16.7 C 97 % 16.22 C
398 15-08-2017 09:05:00 16.7 C 97 % 16.22 C
399 15-08-2017 09:10:00 16.8 C 97 % 16.32 C
400 15-08-2017 09:15:00 16.8 C 97 % 16.32 C
Sensor: Nr:Datum:Temp:Feuchte:Taupunkt:
Aussen-T/F 401 15-08-2017 09:20:00 17 C 97 % 16.52 C
402 15-08-2017 09:25:00 17.1 C 97 % 16.62 C
403 15-08-2017 09:30:00 17.3 C 97 % 16.82 C
404 15-08-2017 09:35:00 17.4 C 97 % 16.92 C
405 15-08-2017 09:40:00 17.7 C 97 % 17.22 C
406 15-08-2017 09:45:00 17.9 C 97 % 17.42 C
407 15-08-2017 09:50:00 18.1 C 97 % 17.62 C
408 15-08-2017 09:55:00 18.3 C 97 % 17.82 C
409 15-08-2017 10:00:00 18.6 C 97 % 18.11 C
410 15-08-2017 10:05:00 18.8 C 97 % 18.31 C
411 15-08-2017 10:10:00 18.8 C 97 % 18.31 C
412 15-08-2017 10:15:00 18.9 C 97 % 18.41 C
413 15-08-2017 10:20:00 19 C 97 % 18.51 C
414 15-08-2017 10:25:00 19.1 C 97 % 18.61 C
415 15-08-2017 10:30:00 19.2 C 97 % 18.71 C
416 15-08-2017 10:35:00 19.1 C 97 % 18.61 C
417 15-08-2017 10:40:00 19.2 C 97 % 18.71 C
418 15-08-2017 10:45:00 19.3 C 97 % 18.81 C
419 15-08-2017 10:50:00 19.4 C 97 % 18.91 C
420 15-08-2017 10:55:00 19.4 C 97 % 18.91 C
421 15-08-2017 11:00:00 19.6 C 97 % 19.11 C
422 15-08-2017 11:05:00 19.7 C 97 % 19.21 C
423 15-08-2017 11:10:00 19.8 C 97 % 19.31 C
424 15-08-2017 11:15:00 19.9 C 97 % 19.41 C
425 15-08-2017 11:20:00 19.8 C 96 % 19.14 C
Sensor: Nr:Datum:Temp:Feuchte:Taupunkt:
Aussen-T/F 426 15-08-2017 11:25:00 19.8 C 96 % 19.14 C
427 15-08-2017 11:30:00 19.8 C 96 % 19.14 C
428 15-08-2017 11:35:00 19.9 C 96 % 19.24 C
429 15-08-2017 11:40:00 20 C 96 % 19.34 C
430 15-08-2017 11:45:00 20 C 96 % 19.34 C
431 15-08-2017 11:50:00 19.9 C 95 % 19.07 C
432 15-08-2017 11:55:00 19.9 C 95 % 19.07 C
433 15-08-2017 12:00:00 19.9 C 95 % 19.07 C
434 15-08-2017 12:05:00 19.9 C 95 % 19.07 C
435 15-08-2017 12:10:00 19.9 C 95 % 19.07 C
436 15-08-2017 12:15:00 19.9 C 94 % 18.91 C
437 15-08-2017 12:20:00 20 C 95 % 19.17 C
438 15-08-2017 12:25:00 20.1 C 94 % 19.1 C
439 15-08-2017 12:30:00 20.3 C 94 % 19.3 C
440 15-08-2017 12:35:00 20.6 C 94 % 19.6 C
441 15-08-2017 12:40:00 20.7 C 94 % 19.7 C
442 15-08-2017 12:45:00 20.6 C 93 % 19.43 C
443 15-08-2017 12:50:00 20.6 C 93 % 19.43 C
444 15-08-2017 12:55:00 20.4 C 92 % 19.06 C
445 15-08-2017 13:00:00 20.2 C 92 % 18.86 C
446 15-08-2017 13:05:00 20.1 C 93 % 18.93 C
447 15-08-2017 13:10:00 20.1 C 94 % 19.1 C
448 15-08-2017 13:15:00 20.2 C 95 % 19.37 C
449 15-08-2017 13:20:00 20.4 C 95 % 19.57 C
450 15-08-2017 13:25:00 20.7 C 96 % 20.04 C
Sensor: Nr:Datum:Temp:Feuchte:Taupunkt:
Aussen-T/F 451 15-08-2017 13:30:00 20.7 C 95 % 19.87 C
452 15-08-2017 13:35:00 20.6 C 94 % 19.6 C
453 15-08-2017 13:40:00 20.6 C 93 % 19.43 C
454 15-08-2017 13:45:00 20.7 C 92 % 19.35 C
455 15-08-2017 13:50:00 20.8 C 93 % 19.63 C
456 15-08-2017 13:55:00 21 C 93 % 19.82 C
457 15-08-2017 14:00:00 21.2 C 94 % 20.19 C
458 15-08-2017 14:05:00 21.3 C 93 % 20.12 C
459 15-08-2017 14:10:00 21.3 C 93 % 20.12 C
460 15-08-2017 14:15:00 21.4 C 93 % 20.22 C
461 15-08-2017 14:20:00 21.4 C 93 % 20.22 C
462 15-08-2017 14:25:00 21.4 C 92 % 20.05 C
463 15-08-2017 14:30:00 21.7 C 93 % 20.52 C
464 15-08-2017 14:35:00 21.8 C 92 % 20.44 C
465 15-08-2017 14:40:00 21.9 C 92 % 20.54 C
466 15-08-2017 14:45:00 22.1 C 92 % 20.74 C
467 15-08-2017 14:50:00 22.3 C 93 % 21.11 C
468 15-08-2017 14:55:00 22.4 C 91 % 20.86 C
469 15-08-2017 15:00:00 22.6 C 90 % 20.87 C
470 15-08-2017 15:05:00 22.9 C 92 % 21.53 C
471 15-08-2017 15:10:00 23.1 C 92 % 21.73 C
472 15-08-2017 15:15:00 23 C 91 % 21.45 C
473 15-08-2017 15:20:00 22.8 C 90 % 21.07 C
474 15-08-2017 15:25:00 22.7 C 90 % 20.97 C
475 15-08-2017 15:30:00 22.5 C 91 % 20.96 C
Sensor: Nr:Datum:Temp:Feuchte:Taupunkt:
Aussen-T/F 476 15-08-2017 15:35:00 22.3 C 91 % 20.76 C
477 15-08-2017 15:40:00 22.1 C 90 % 20.38 C
478 15-08-2017 15:45:00 21.9 C 90 % 20.18 C
479 15-08-2017 15:50:00 21.9 C 91 % 20.36 C
480 15-08-2017 15:55:00 21.9 C 92 % 20.54 C
481 15-08-2017 16:00:00 21.9 C 92 % 20.54 C
482 15-08-2017 16:05:00 21.9 C 92 % 20.54 C
483 15-08-2017 16:10:00 22.1 C 93 % 20.91 C
484 15-08-2017 16:15:00 22.1 C 93 % 20.91 C
485 15-08-2017 16:20:00 22.1 C 92 % 20.74 C
486 15-08-2017 16:25:00 22.2 C 93 % 21.01 C
487 15-08-2017 16:30:00 22.3 C 93 % 21.11 C
488 15-08-2017 16:35:00 22.5 C 93 % 21.31 C
489 15-08-2017 16:40:00 22.6 C 93 % 21.41 C
490 15-08-2017 16:45:00 22.7 C 93 % 21.51 C
491 15-08-2017 16:50:00 22.7 C 92 % 21.33 C
492 15-08-2017 16:55:00 22.6 C 91 % 21.05 C
493 15-08-2017 17:00:00 22.5 C 90 % 20.78 C
494 15-08-2017 17:05:00 22.3 C 90 % 20.58 C
495 15-08-2017 17:10:00 22.2 C 90 % 20.48 C
496 15-08-2017 17:15:00 22.1 C 90 % 20.38 C
497 15-08-2017 17:20:00 22 C 90 % 20.28 C
498 15-08-2017 17:25:00 21.9 C 90 % 20.18 C
499 15-08-2017 17:30:00 21.9 C 91 % 20.36 C
500 15-08-2017 17:35:00 21.9 C 91 % 20.36 C
Sensor: Nr:Datum:Temp:Feuchte:Taupunkt:
Aussen-T/F 501 15-08-2017 17:40:00 21.8 C 91 % 20.26 C
502 15-08-2017 17:45:00 21.9 C 91 % 20.36 C
503 15-08-2017 17:50:00 22.1 C 92 % 20.74 C
504 15-08-2017 17:55:00 22.3 C 91 % 20.76 C
505 15-08-2017 18:00:00 22.8 C 88 % 20.71 C
506 15-08-2017 18:05:00 23.2 C 89 % 21.28 C
507 15-08-2017 18:10:00 23.3 C 85 % 20.63 C
508 15-08-2017 18:15:00 23.2 C 84 % 20.34 C
509 15-08-2017 18:20:00 23.1 C 85 % 20.44 C
510 15-08-2017 18:25:00 23 C 86 % 20.53 C
511 15-08-2017 18:30:00 22.7 C 85 % 20.05 C
512 15-08-2017 18:35:00 22.5 C 86 % 20.04 C
513 15-08-2017 18:40:00 22.3 C 87 % 20.03 C
514 15-08-2017 18:45:00 22.1 C 87 % 19.83 C
515 15-08-2017 18:50:00 21.9 C 88 % 19.82 C
516 15-08-2017 18:55:00 21.8 C 89 % 19.9 C
517 15-08-2017 19:00:00 21.7 C 90 % 19.99 C
518 15-08-2017 19:05:00 21.7 C 90 % 19.99 C
519 15-08-2017 19:10:00 21.6 C 89 % 19.71 C
520 15-08-2017 19:15:00 21.6 C 89 % 19.71 C
521 15-08-2017 19:20:00 21.5 C 88 % 19.43 C
522 15-08-2017 19:25:00 21.4 C 88 % 19.33 C
523 15-08-2017 19:30:00 21.3 C 89 % 19.41 C
524 15-08-2017 19:35:00 21.2 C 88 % 19.13 C
525 15-08-2017 19:40:00 21.1 C 89 % 19.22 C
Sensor: Nr:Datum:Temp:Feuchte:Taupunkt:
Aussen-T/F 526 15-08-2017 19:45:00 21 C 89 % 19.12 C
527 15-08-2017 19:50:00 20.9 C 89 % 19.02 C
528 15-08-2017 19:55:00 20.8 C 89 % 18.92 C
529 15-08-2017 20:00:00 20.7 C 88 % 18.64 C
530 15-08-2017 20:05:00 20.7 C 89 % 18.82 C
531 15-08-2017 20:10:00 20.7 C 89 % 18.82 C
532 15-08-2017 20:15:00 20.6 C 89 % 18.72 C
533 15-08-2017 20:20:00 20.5 C 89 % 18.62 C
534 15-08-2017 20:25:00 20.4 C 89 % 18.53 C
535 15-08-2017 20:30:00 20.3 C 89 % 18.43 C
536 15-08-2017 20:35:00 20.2 C 90 % 18.51 C
537 15-08-2017 20:40:00 20.2 C 90 % 18.51 C
538 15-08-2017 20:45:00 20.1 C 90 % 18.41 C
539 15-08-2017 20:50:00 20 C 90 % 18.31 C
540 15-08-2017 20:55:00 19.9 C 90 % 18.21 C
541 15-08-2017 21:00:00 19.8 C 90 % 18.11 C
542 15-08-2017 21:05:00 19.8 C 90 % 18.11 C
543 15-08-2017 21:10:00 19.7 C 90 % 18.01 C
544 15-08-2017 21:15:00 19.7 C 90 % 18.01 C
545 15-08-2017 21:20:00 19.6 C 90 % 17.91 C
546 15-08-2017 21:25:00 19.6 C 91 % 18.09 C
547 15-08-2017 21:30:00 19.5 C 91 % 17.99 C
548 15-08-2017 21:35:00 19.4 C 91 % 17.89 C
549 15-08-2017 21:40:00 19.3 C 91 % 17.79 C
550 15-08-2017 21:45:00 19.2 C 91 % 17.69 C
Sensor: Nr:Datum:Temp:Feuchte:Taupunkt:
Aussen-T/F 551 15-08-2017 21:50:00 19.1 C 92 % 17.77 C
552 15-08-2017 21:55:00 19 C 92 % 17.67 C
553 15-08-2017 22:00:00 18.9 C 92 % 17.57 C
554 15-08-2017 22:05:00 18.8 C 92 % 17.47 C
555 15-08-2017 22:10:00 18.8 C 92 % 17.47 C
556 15-08-2017 22:15:00 18.9 C 93 % 17.74 C
557 15-08-2017 22:20:00 18.9 C 93 % 17.74 C
558 15-08-2017 22:25:00 18.9 C 93 % 17.74 C
559 15-08-2017 22:30:00 18.9 C 93 % 17.74 C
560 15-08-2017 22:35:00 18.9 C 93 % 17.74 C
561 15-08-2017 22:40:00 18.9 C 93 % 17.74 C
562 15-08-2017 22:45:00 18.9 C 93 % 17.74 C
563 15-08-2017 22:50:00 19 C 93 % 17.84 C
564 15-08-2017 22:55:00 19.1 C 93 % 17.94 C
565 15-08-2017 23:00:00 19.1 C 93 % 17.94 C
566 15-08-2017 23:05:00 19.2 C 93 % 18.04 C
567 15-08-2017 23:10:00 19.4 C 93 % 18.24 C
568 15-08-2017 23:15:00 19.5 C 93 % 18.34 C
569 15-08-2017 23:20:00 19.6 C 93 % 18.44 C
570 15-08-2017 23:25:00 19.6 C 93 % 18.44 C
571 15-08-2017 23:30:00 19.6 C 93 % 18.44 C
572 15-08-2017 23:35:00 19.6 C 93 % 18.44 C
573 15-08-2017 23:40:00 19.5 C 93 % 18.34 C
574 15-08-2017 23:45:00 19.4 C 93 % 18.24 C
575 15-08-2017 23:50:00 19.4 C 94 % 18.41 C
Sensor: Nr:Datum:Temp:Feuchte:Taupunkt:
Aussen-T/F 576 15-08-2017 23:55:00 19.3 C 94 % 18.31 C

Legende:
   Min
   Max


Maximal/Minimal-Werte vom 14.08.2017 - 15.08.2017

Sensor Min Max Avg
Temp
(Aussen-T/F)
11.6 °C
14-08-2017  04:55:00
27.2 °C
14-08-2017  18:35:00
18.43 °C
Feuchte
(Aussen-T/F)
65 %
14-08-2017  15:55:00
97 %
14-08-2017  07:05:00
90.39 %
Taupunkt
(Aussen-T/F)
10.98 C
14-08-2017  04:55:00
21.74 C
14-08-2017  18:25:00
16.7 C

Die Daten stammen von einer Davis Vantage Pro 2 Wetter-Station und werden unter Linux mit der Software wview2wettercgi und aufbereitet. Alle Angaben erfolgen ohne Gewähr für ihre Vollständigkeit oder Richtigkeit.
Kontakt: Rainer Krienke krienke@uni-koblenz.de . Meine Webseiten an der Uni Koblenz oder privat.
Version: $Revision: 0.78 $